createdAt,value
2023-05-16T00:00:46.862Z,14.40
2023-05-16T00:03:13.775Z,7.40
2023-05-16T00:05:41.031Z,11.35
2023-05-16T00:08:07.893Z,13.20
2023-05-16T00:10:34.543Z,14.02
2023-05-16T00:13:04.517Z,9.07
2023-05-16T00:15:31.349Z,11.95
2023-05-16T00:17:59.697Z,10.77
2023-05-16T00:20:28.746Z,13.48
2023-05-16T00:22:56.411Z,7.95
2023-05-16T00:25:23.502Z,14.82
2023-05-16T00:27:50.588Z,13.45
2023-05-16T00:30:19.491Z,16.73
2023-05-16T00:32:46.520Z,9.02
2023-05-16T00:35:13.461Z,8.18
2023-05-16T00:37:40.464Z,10.27
2023-05-16T00:40:08.146Z,12.15
2023-05-16T00:42:35.036Z,11.68
2023-05-16T00:45:01.836Z,18.23
2023-05-16T00:47:29.231Z,12.02
2023-05-16T00:49:56.863Z,11.75
2023-05-16T00:52:24.546Z,11.07
2023-05-16T00:54:52.225Z,12.00
2023-05-16T00:57:19.601Z,12.85
2023-05-16T00:59:47.601Z,9.00
2023-05-16T01:02:15.082Z,13.57
2023-05-16T01:04:43.594Z,16.58
2023-05-16T01:07:10.667Z,14.60
2023-05-16T01:09:37.588Z,8.88
2023-05-16T01:12:21.396Z,9.57
2023-05-16T01:15:30.106Z,16.08
2023-05-16T01:18:17.138Z,9.98
2023-05-16T01:20:57.095Z,17.05
2023-05-16T01:23:57.449Z,14.52
2023-05-16T01:26:28.711Z,13.43
2023-05-16T01:28:56.088Z,11.60
2023-05-16T01:31:24.092Z,8.57
2023-05-16T01:33:51.150Z,11.82
2023-05-16T01:37:06.397Z,11.40
2023-05-16T01:39:48.040Z,13.10
2023-05-16T01:42:16.454Z,15.02
2023-05-16T01:44:52.245Z,16.38
2023-05-16T01:47:21.599Z,12.18
2023-05-16T01:50:00.496Z,10.88
2023-05-16T01:52:32.608Z,12.50
2023-05-16T01:55:00.888Z,9.48
2023-05-16T01:57:29.347Z,13.60
2023-05-16T01:59:58.105Z,10.38
2023-05-16T02:02:25.044Z,9.88
2023-05-16T02:04:52.044Z,10.32
2023-05-16T02:07:19.433Z,7.68
2023-05-16T02:09:46.240Z,17.85
2023-05-16T02:12:13.530Z,9.68
2023-05-16T02:14:40.480Z,9.95
2023-05-16T02:17:07.705Z,15.70
2023-05-16T02:19:35.022Z,12.65
2023-05-16T02:22:01.836Z,12.13
2023-05-16T02:24:28.742Z,13.77
2023-05-16T02:26:55.817Z,17.38
2023-05-16T02:29:22.807Z,13.80
2023-05-16T02:31:49.524Z,13.18
2023-05-16T02:34:16.960Z,11.30
2023-05-16T02:36:46.706Z,11.95
2023-05-16T02:39:13.744Z,12.23
2023-05-16T02:41:40.764Z,11.07
2023-05-16T02:44:07.746Z,14.68
2023-05-16T02:46:35.028Z,19.77
2023-05-16T02:49:02.352Z,16.48
2023-05-16T02:51:29.675Z,20.88
2023-05-16T02:54:02.849Z,17.08
2023-05-16T02:56:29.760Z,14.95
2023-05-16T02:58:56.828Z,11.40
2023-05-16T03:01:24.298Z,11.05
2023-05-16T03:03:51.326Z,11.63
2023-05-16T03:06:18.371Z,9.98
2023-05-16T03:08:45.307Z,10.32
2023-05-16T03:11:12.193Z,13.20
2023-05-16T03:13:39.242Z,11.45
2023-05-16T03:16:06.883Z,15.88
2023-05-16T03:18:34.829Z,14.05
2023-05-16T03:21:03.221Z,13.55
2023-05-16T03:23:30.040Z,15.68
2023-05-16T03:25:56.959Z,21.30
2023-05-16T03:28:23.902Z,14.80
2023-05-16T03:30:50.944Z,13.60
2023-05-16T03:33:19.162Z,11.35
2023-05-16T03:35:46.870Z,12.75
2023-05-16T03:38:13.778Z,16.88
2023-05-16T03:40:40.758Z,14.77
2023-05-16T03:43:07.703Z,10.70
2023-05-16T03:45:34.562Z,10.13
2023-05-16T03:48:01.762Z,9.73
2023-05-16T03:50:28.928Z,15.90
2023-05-16T03:52:55.962Z,20.30
2023-05-16T03:55:22.902Z,13.20
2023-05-16T03:57:51.279Z,15.20
2023-05-16T04:00:18.313Z,19.20
2023-05-16T04:02:45.458Z,18.35
2023-05-16T04:05:14.133Z,14.98
2023-05-16T04:07:41.192Z,16.42
2023-05-16T04:10:19.505Z,17.95
2023-05-16T04:12:46.481Z,16.42
2023-05-16T04:15:13.947Z,12.13
2023-05-16T04:17:41.021Z,15.13
2023-05-16T04:20:08.212Z,13.05
2023-05-16T04:22:35.193Z,14.00
2023-05-16T04:25:02.240Z,12.80
2023-05-16T04:27:30.799Z,15.57
2023-05-16T04:29:57.837Z,24.85
2023-05-16T04:32:25.226Z,12.70
2023-05-16T04:34:54.273Z,7.13
2023-05-16T04:37:21.136Z,9.07
2023-05-16T04:39:48.008Z,9.43
2023-05-16T04:42:14.935Z,9.80
2023-05-16T04:44:42.516Z,10.48
2023-05-16T04:47:09.735Z,8.20
2023-05-16T04:49:36.709Z,11.52
2023-05-16T04:52:06.245Z,15.13
2023-05-16T04:54:33.125Z,8.52
2023-05-16T04:57:00.268Z,10.70
2023-05-16T04:59:28.844Z,11.02
2023-05-16T05:01:55.707Z,10.73
2023-05-16T05:04:33.768Z,8.65
2023-05-16T05:07:00.659Z,10.88
2023-05-16T05:09:27.358Z,8.07
2023-05-16T05:11:54.330Z,9.82
2023-05-16T05:14:22.011Z,12.88
2023-05-16T05:16:49.021Z,13.25
2023-05-16T05:19:16.334Z,11.25
2023-05-16T05:21:43.412Z,11.98
2023-05-16T05:24:10.877Z,13.52
2023-05-16T05:26:37.940Z,10.40
2023-05-16T05:29:06.272Z,12.15
2023-05-16T05:31:35.033Z,8.05
2023-05-16T05:34:03.181Z,9.00
2023-05-16T05:36:31.043Z,9.70
2023-05-16T05:38:58.185Z,7.85
2023-05-16T05:41:27.340Z,8.25
2023-05-16T05:43:54.324Z,10.77
2023-05-16T05:46:21.332Z,12.77
2023-05-16T05:48:48.307Z,9.80
2023-05-16T05:51:15.455Z,15.23
2023-05-16T05:53:42.807Z,9.10
2023-05-16T05:56:09.674Z,9.77
2023-05-16T05:58:39.713Z,15.75
2023-05-16T06:01:06.699Z,15.82
2023-05-16T06:03:33.996Z,13.35
2023-05-16T06:06:01.340Z,11.43
2023-05-16T06:08:34.934Z,11.25
2023-05-16T06:11:02.093Z,11.32
2023-05-16T06:13:28.856Z,9.93
2023-05-16T06:15:55.917Z,12.40
2023-05-16T06:18:22.830Z,14.68
2023-05-16T06:20:50.652Z,13.98
2023-05-16T06:23:19.287Z,10.70
2023-05-16T06:25:47.965Z,11.85
2023-05-16T06:28:14.905Z,12.32
2023-05-16T06:30:45.283Z,12.05
2023-05-16T06:33:19.709Z,10.60
2023-05-16T06:35:49.180Z,10.43
2023-05-16T06:38:16.580Z,14.63
2023-05-16T06:40:43.408Z,12.30
2023-05-16T06:43:10.456Z,14.60
2023-05-16T06:45:37.435Z,13.23
2023-05-16T06:48:05.493Z,10.57
2023-05-16T06:50:34.614Z,17.88
2023-05-16T06:53:02.036Z,18.50
2023-05-16T06:55:29.281Z,16.50
2023-05-16T06:58:04.672Z,13.27
2023-05-16T07:00:31.686Z,16.27
2023-05-16T07:03:01.600Z,12.48
2023-05-16T07:05:28.894Z,16.08
2023-05-16T07:07:56.284Z,13.23
2023-05-16T07:10:23.464Z,16.20
2023-05-16T07:12:50.398Z,20.13
2023-05-16T07:15:18.761Z,14.48
2023-05-16T07:17:46.076Z,15.98
2023-05-16T07:20:14.978Z,15.75
2023-05-16T07:22:42.098Z,15.23
2023-05-16T07:25:13.049Z,18.95
2023-05-16T07:27:45.324Z,15.05
2023-05-16T07:30:15.730Z,15.60
2023-05-16T07:32:43.600Z,15.93
2023-05-16T07:35:11.396Z,15.77
2023-05-16T07:37:38.416Z,15.65
2023-05-16T07:40:06.185Z,16.05
2023-05-16T07:42:33.309Z,15.77
2023-05-16T07:45:00.255Z,13.85
2023-05-16T07:47:27.254Z,14.32
2023-05-16T07:49:56.541Z,13.93
2023-05-16T07:52:23.531Z,14.93
2023-05-16T07:54:51.003Z,16.50
2023-05-16T07:57:18.472Z,12.25
2023-05-16T07:59:45.575Z,11.18
2023-05-16T08:02:12.912Z,15.45
2023-05-16T08:04:40.102Z,14.32
2023-05-16T08:07:09.246Z,15.93
2023-05-16T08:09:36.168Z,14.02
2023-05-16T08:12:03.991Z,14.60
2023-05-16T08:14:34.435Z,11.32
2023-05-16T08:17:11.771Z,13.50
2023-05-16T08:19:39.537Z,12.25
2023-05-16T08:22:10.265Z,15.00
2023-05-16T08:24:40.123Z,11.68
2023-05-16T08:29:54.009Z,14.93
2023-05-16T08:32:22.610Z,15.07
2023-05-16T08:34:49.609Z,13.43
2023-05-16T08:37:17.474Z,14.60
2023-05-16T08:39:44.364Z,16.40
2023-05-16T08:42:11.234Z,12.38
2023-05-16T08:44:42.878Z,11.82
2023-05-16T08:47:22.265Z,15.93
2023-05-16T08:49:54.345Z,13.52
2023-05-16T08:52:24.977Z,13.95
2023-05-16T08:55:10.376Z,10.38
2023-05-16T08:57:52.191Z,13.02
2023-05-16T09:00:20.060Z,7.90
2023-05-16T09:02:47.291Z,8.98
2023-05-16T09:05:20.128Z,11.00
2023-05-16T09:07:46.922Z,8.15
2023-05-16T09:10:14.257Z,10.32
2023-05-16T09:12:42.384Z,12.68
2023-05-16T09:15:11.288Z,13.38
2023-05-16T09:17:43.752Z,7.80
2023-05-16T09:20:11.606Z,8.52
2023-05-16T09:22:39.342Z,8.95
2023-05-16T09:25:12.696Z,10.65
2023-05-16T09:27:48.324Z,9.38
2023-05-16T09:30:18.971Z,8.35
2023-05-16T09:32:46.107Z,10.48
2023-05-16T09:35:35.182Z,11.10
2023-05-16T09:38:14.982Z,12.55
2023-05-16T09:40:42.481Z,13.20
2023-05-16T09:43:09.479Z,9.95
2023-05-16T09:45:46.419Z,15.82
2023-05-16T09:48:14.490Z,14.55
2023-05-16T09:50:49.214Z,15.73
2023-05-16T09:53:16.067Z,12.63
2023-05-16T09:55:45.687Z,19.50
2023-05-16T09:58:12.953Z,10.88
2023-05-16T10:00:41.217Z,16.45
2023-05-16T10:03:09.113Z,12.00
2023-05-16T10:05:37.184Z,17.77
2023-05-16T10:08:05.491Z,11.40
2023-05-16T10:10:36.682Z,8.85
2023-05-16T10:13:14.513Z,11.07
2023-05-16T10:15:50.418Z,11.13
2023-05-16T10:18:19.987Z,9.00
2023-05-16T10:20:49.703Z,10.48
2023-05-16T10:23:21.508Z,7.82
2023-05-16T10:25:51.220Z,5.45
2023-05-16T10:28:20.078Z,4.70
2023-05-16T10:30:47.512Z,4.75
2023-05-16T10:33:18.626Z,6.72
2023-05-16T10:35:48.626Z,6.18
2023-05-16T10:38:18.202Z,4.43
2023-05-16T10:40:45.618Z,5.32
2023-05-16T10:43:24.014Z,8.20
2023-05-16T10:46:03.337Z,4.80
2023-05-16T10:48:31.347Z,4.07
2023-05-16T10:50:58.474Z,3.33
2023-05-16T10:53:38.537Z,3.00
2023-05-16T10:56:08.997Z,2.72
2023-05-16T10:58:42.675Z,2.15
2023-05-16T11:01:35.131Z,5.10
2023-05-16T11:04:06.456Z,4.38
2023-05-16T11:06:48.676Z,2.13
2023-05-16T11:09:27.763Z,2.22
2023-05-16T11:11:56.116Z,1.95
2023-05-16T11:14:24.121Z,1.95
2023-05-16T11:17:02.133Z,3.83
2023-05-16T11:19:33.361Z,3.50
2023-05-16T11:22:07.585Z,2.10
2023-05-16T11:24:36.360Z,2.77
2023-05-16T11:27:06.794Z,8.05
2023-05-16T11:29:36.261Z,4.93
2023-05-16T11:32:05.798Z,4.47
2023-05-16T11:34:38.005Z,4.28
2023-05-16T11:37:06.598Z,3.92
2023-05-16T11:39:36.465Z,4.90
2023-05-16T11:42:03.740Z,13.30
2023-05-16T11:44:31.096Z,3.00
2023-05-16T11:47:02.019Z,7.13
2023-05-16T11:49:32.067Z,10.65
2023-05-16T11:51:59.182Z,4.60
2023-05-16T11:54:26.601Z,3.00
2023-05-16T11:56:55.717Z,3.20
2023-05-16T11:59:23.180Z,5.88
2023-05-16T12:01:50.643Z,11.82
2023-05-16T12:04:18.449Z,4.55
2023-05-16T12:06:47.363Z,4.57
2023-05-16T12:09:18.147Z,4.78
2023-05-16T12:11:45.807Z,2.67
2023-05-16T12:14:14.032Z,3.55
2023-05-16T12:16:46.697Z,3.75
2023-05-16T12:19:16.258Z,3.20
2023-05-16T12:21:43.360Z,5.03
2023-05-16T12:24:12.283Z,3.97
2023-05-16T12:26:46.034Z,5.53
2023-05-16T12:29:13.860Z,3.55
2023-05-16T12:31:42.294Z,2.92
2023-05-16T12:34:21.725Z,4.72
2023-05-16T12:36:53.131Z,4.00
2023-05-16T12:39:20.735Z,4.85
2023-05-16T12:41:50.363Z,5.85
2023-05-16T12:44:20.187Z,4.26
2023-05-16T12:46:51.686Z,4.93
2023-05-16T12:49:25.054Z,3.63
2023-05-16T12:51:53.712Z,4.45
2023-05-16T12:54:33.593Z,4.13
2023-05-16T12:57:00.738Z,4.78
2023-05-16T12:59:29.383Z,4.25
2023-05-16T13:01:56.457Z,5.25
2023-05-16T13:04:24.059Z,4.53
2023-05-16T13:06:59.658Z,5.18
2023-05-16T13:09:31.087Z,5.90
2023-05-16T13:11:59.854Z,4.50
2023-05-16T13:14:27.449Z,3.58
2023-05-16T13:16:54.470Z,3.65
2023-05-16T13:19:24.525Z,2.80
2023-05-16T13:21:51.595Z,3.55
2023-05-16T13:24:18.654Z,8.35
2023-05-16T13:26:45.567Z,3.60
2023-05-16T13:29:13.285Z,3.03
2023-05-16T13:31:40.589Z,6.47
2023-05-16T13:34:07.646Z,4.45
2023-05-16T13:36:49.378Z,19.75
2023-05-16T13:39:20.864Z,3.88
2023-05-16T13:41:49.136Z,3.08
2023-05-16T13:44:16.876Z,4.47
2023-05-16T13:46:44.294Z,6.80
2023-05-16T13:49:13.389Z,5.28
2023-05-16T13:51:43.297Z,5.18
2023-05-16T13:54:19.434Z,7.05
2023-05-16T13:56:46.537Z,4.68
2023-05-16T13:59:16.816Z,6.05
2023-05-16T14:01:51.451Z,2.70
2023-05-16T14:04:20.462Z,3.63
2023-05-16T14:06:50.382Z,3.67
2023-05-16T14:09:17.657Z,3.25
2023-05-16T14:11:49.150Z,2.35
2023-05-16T14:14:15.925Z,2.08
2023-05-16T14:16:46.216Z,1.65
2023-05-16T14:19:15.447Z,3.67
2023-05-16T14:21:44.540Z,7.70
2023-05-16T14:24:12.036Z,2.20
2023-05-16T14:26:39.266Z,3.15
2023-05-16T14:29:08.920Z,1.90
2023-05-16T14:31:38.739Z,3.63
2023-05-16T14:34:05.935Z,2.50
2023-05-16T14:36:37.715Z,1.83
2023-05-16T14:41:45.407Z,1.73
2023-05-16T14:44:12.985Z,1.45
2023-05-16T14:46:40.210Z,1.60
2023-05-16T14:49:07.540Z,1.63
2023-05-16T14:51:34.550Z,1.90
2023-05-16T14:54:01.522Z,1.60
2023-05-16T14:56:28.673Z,3.17
2023-05-16T14:58:57.707Z,1.58
2023-05-16T15:01:24.673Z,1.63
2023-05-16T15:03:55.991Z,2.50
2023-05-16T15:06:26.496Z,2.25
2023-05-16T15:08:53.755Z,3.60
2023-05-16T15:11:21.723Z,1.60
2023-05-16T15:13:48.862Z,1.27
2023-05-16T15:16:16.525Z,2.92
2023-05-16T15:18:43.944Z,2.75
2023-05-16T15:21:11.062Z,2.53
2023-05-16T15:23:37.971Z,1.30
2023-05-16T15:26:05.295Z,1.20
2023-05-16T15:28:32.291Z,2.35
2023-05-16T15:31:00.016Z,2.13
2023-05-16T15:33:28.098Z,2.90
2023-05-16T15:35:55.141Z,2.03
2023-05-16T15:38:22.062Z,2.55
2023-05-16T15:40:52.714Z,3.22
2023-05-16T15:43:28.566Z,1.30
2023-05-16T15:45:55.688Z,1.42
2023-05-16T15:48:22.672Z,1.42
2023-05-16T15:50:50.043Z,1.20
2023-05-16T15:53:16.867Z,1.98
2023-05-16T15:55:43.929Z,2.03
2023-05-16T15:58:10.819Z,1.58
2023-05-16T16:00:41.288Z,2.55
2023-05-16T16:03:19.772Z,3.17
2023-05-16T16:05:48.322Z,1.73
2023-05-16T16:08:15.300Z,0.98
2023-05-16T16:10:49.454Z,1.95
2023-05-16T16:13:16.439Z,1.65
2023-05-16T16:15:43.351Z,1.45
2023-05-16T16:18:11.929Z,1.40
2023-05-16T16:20:38.986Z,1.67
2023-05-16T16:23:06.073Z,3.65
2023-05-16T16:25:32.908Z,2.70
2023-05-16T16:28:00.176Z,1.73
2023-05-16T16:30:28.137Z,2.10
2023-05-16T16:32:55.360Z,1.30
2023-05-16T16:35:26.185Z,0.90
2023-05-16T16:38:05.681Z,1.40
2023-05-16T16:40:35.381Z,2.78
2023-05-16T16:43:04.825Z,2.58
2023-05-16T16:45:31.991Z,1.50
2023-05-16T16:47:59.676Z,2.42
2023-05-16T16:50:31.490Z,2.08
2023-05-16T16:53:03.571Z,1.58
2023-05-16T16:55:31.104Z,2.15
2023-05-16T16:57:59.916Z,1.48
2023-05-16T17:00:34.380Z,1.33
2023-05-16T17:03:04.282Z,1.13
2023-05-16T17:05:31.297Z,1.20
2023-05-16T17:07:58.439Z,3.35
2023-05-16T17:10:25.500Z,1.20
2023-05-16T17:12:52.588Z,4.13
2023-05-16T17:15:19.966Z,1.05
2023-05-16T17:17:49.389Z,1.10
2023-05-16T17:20:16.774Z,1.35
2023-05-16T17:22:43.838Z,0.80
2023-05-16T17:25:10.867Z,1.17
2023-05-16T17:27:38.024Z,1.58
2023-05-16T17:30:05.245Z,0.93
2023-05-16T17:32:32.524Z,1.80
2023-05-16T17:35:03.928Z,0.80
2023-05-16T17:37:31.067Z,1.05
2023-05-16T17:39:58.640Z,0.60
2023-05-16T17:42:25.913Z,0.70
2023-05-16T17:44:53.090Z,0.80
2023-05-16T17:47:20.094Z,1.02
2023-05-16T17:49:47.903Z,2.33
2023-05-16T17:52:15.522Z,2.60
2023-05-16T17:54:42.453Z,1.00
2023-05-16T17:57:09.454Z,1.25
2023-05-16T17:59:38.397Z,1.77
2023-05-16T18:02:09.016Z,0.60
2023-05-16T18:04:36.228Z,1.63
2023-05-16T18:07:03.172Z,1.95
2023-05-16T18:09:30.204Z,2.40
2023-05-16T18:11:57.142Z,2.17
2023-05-16T18:14:24.112Z,1.55
2023-05-16T18:17:01.407Z,2.45
2023-05-16T18:19:30.900Z,2.92
2023-05-16T18:21:59.789Z,4.95
2023-05-16T18:24:26.755Z,3.28
2023-05-16T18:26:53.892Z,4.60
2023-05-16T18:29:21.703Z,3.88
2023-05-16T18:31:48.821Z,3.90
2023-05-16T18:34:16.238Z,1.95
2023-05-16T18:36:43.168Z,5.68
2023-05-16T18:39:10.921Z,5.05
2023-05-16T18:41:41.304Z,3.88
2023-05-16T18:44:08.590Z,2.40
2023-05-16T18:46:36.317Z,1.98
2023-05-16T18:49:03.208Z,3.78
2023-05-16T18:51:30.584Z,3.78
2023-05-16T18:53:57.511Z,8.90
2023-05-16T18:56:24.561Z,2.63
2023-05-16T18:58:51.687Z,2.90
2023-05-16T19:01:22.389Z,5.20
2023-05-16T19:03:50.330Z,3.47
2023-05-16T19:06:17.454Z,4.70
2023-05-16T19:08:48.076Z,6.65
2023-05-16T19:11:19.532Z,4.95
2023-05-16T19:13:47.311Z,8.23
2023-05-16T19:16:14.854Z,5.10
2023-05-16T19:18:42.627Z,4.55
2023-05-16T19:21:11.105Z,5.40
2023-05-16T19:23:38.112Z,6.63
2023-05-16T19:26:05.177Z,7.60
2023-05-16T19:28:33.638Z,7.97
2023-05-16T19:31:01.021Z,7.03
2023-05-16T19:33:27.698Z,9.02
2023-05-16T19:35:54.786Z,5.93
2023-05-16T19:38:23.630Z,7.03
2023-05-16T19:40:51.442Z,6.15
2023-05-16T19:43:18.758Z,12.80
2023-05-16T19:45:45.948Z,4.28
2023-05-16T19:48:13.945Z,4.57
2023-05-16T19:50:43.982Z,4.28
2023-05-16T19:53:10.921Z,4.45
2023-05-16T19:55:39.175Z,5.45
2023-05-16T19:58:06.636Z,5.30
2023-05-16T20:00:33.524Z,4.10
2023-05-16T20:03:00.614Z,3.97
2023-05-16T20:05:27.694Z,6.25
2023-05-16T20:07:56.189Z,3.80
2023-05-16T20:10:23.404Z,5.32
2023-05-16T20:12:50.393Z,5.57
2023-05-16T20:15:19.016Z,6.93
2023-05-16T20:17:46.047Z,4.85
2023-05-16T20:20:13.213Z,4.82
2023-05-16T20:22:50.893Z,4.22
2023-05-16T20:25:18.143Z,4.55
2023-05-16T20:27:50.143Z,5.80
2023-05-16T20:30:16.985Z,6.78
2023-05-16T20:32:44.081Z,5.28
2023-05-16T20:35:11.489Z,6.70
2023-05-16T20:37:38.591Z,6.05
2023-05-16T20:40:09.030Z,6.65
2023-05-16T20:42:36.582Z,7.07
2023-05-16T20:45:04.455Z,7.78
2023-05-16T20:47:31.480Z,9.50
2023-05-16T20:49:58.365Z,5.80
2023-05-16T20:52:25.485Z,8.40
2023-05-16T20:54:53.528Z,11.82
2023-05-16T20:57:21.687Z,8.52
2023-05-16T20:59:48.864Z,7.60
2023-05-16T21:02:16.112Z,7.63
2023-05-16T21:04:42.905Z,8.35
2023-05-16T21:07:11.482Z,18.92
2023-05-16T21:09:39.818Z,6.55
2023-05-16T21:12:07.452Z,7.72
2023-05-16T21:14:34.230Z,8.95
2023-05-16T21:17:01.105Z,9.00
2023-05-16T21:19:34.143Z,6.60
2023-05-16T21:22:04.491Z,8.75
2023-05-16T21:24:35.439Z,9.20
2023-05-16T21:27:03.686Z,11.52
2023-05-16T21:29:30.838Z,7.93
2023-05-16T21:31:57.983Z,10.68
2023-05-16T21:34:26.877Z,7.82
2023-05-16T21:36:54.137Z,8.88
2023-05-16T21:39:21.222Z,8.85
2023-05-16T21:41:48.310Z,10.43
2023-05-16T21:44:17.337Z,8.88
2023-05-16T21:46:44.862Z,11.30
2023-05-16T21:49:12.018Z,7.82
2023-05-16T21:51:39.173Z,7.20
2023-05-16T21:54:06.274Z,9.77
2023-05-16T21:56:33.897Z,9.02
2023-05-16T21:59:01.311Z,9.07
2023-05-16T22:01:29.561Z,12.07
2023-05-16T22:03:58.193Z,13.93
2023-05-16T22:06:25.639Z,11.88
2023-05-16T22:08:53.474Z,7.78
2023-05-16T22:11:20.385Z,7.43
2023-05-16T22:13:47.406Z,11.30
2023-05-16T22:16:14.461Z,9.05
2023-05-16T22:18:41.677Z,8.32
2023-05-16T22:21:08.742Z,11.40
2023-05-16T22:23:36.368Z,9.90
2023-05-16T22:26:03.655Z,8.43
2023-05-16T22:28:31.021Z,10.57
2023-05-16T22:30:57.960Z,9.75
2023-05-16T22:33:25.702Z,10.27
2023-05-16T22:35:52.810Z,10.55
2023-05-16T22:38:19.702Z,11.93
2023-05-16T22:40:46.691Z,12.10
2023-05-16T22:43:13.514Z,11.25
2023-05-16T22:45:40.524Z,9.95
2023-05-16T22:48:08.384Z,12.00
2023-05-16T22:50:35.378Z,11.30
2023-05-16T22:53:03.545Z,13.35
2023-05-16T22:55:30.670Z,15.75
2023-05-16T22:57:59.897Z,10.38
2023-05-16T23:00:29.124Z,14.40
2023-05-16T23:02:57.282Z,12.00
2023-05-16T23:05:26.527Z,8.73
2023-05-16T23:07:53.721Z,11.32
2023-05-16T23:10:20.958Z,10.88
2023-05-16T23:12:49.884Z,10.85
2023-05-16T23:15:16.878Z,9.30
2023-05-16T23:17:43.821Z,10.68
2023-05-16T23:20:11.078Z,12.25
2023-05-16T23:22:37.992Z,12.55
2023-05-16T23:25:05.977Z,8.98
2023-05-16T23:27:32.836Z,23.13
2023-05-16T23:29:59.696Z,9.27
2023-05-16T23:32:26.438Z,8.82
2023-05-16T23:34:53.423Z,11.45
2023-05-16T23:37:20.361Z,14.68
2023-05-16T23:39:47.083Z,9.18
2023-05-16T23:42:14.114Z,10.40
2023-05-16T23:44:45.165Z,7.72
2023-05-16T23:47:20.287Z,9.77
2023-05-16T23:49:47.558Z,7.45
2023-05-16T23:52:14.669Z,9.68
2023-05-16T23:54:41.688Z,6.88
2023-05-16T23:57:08.636Z,9.82
2023-05-16T23:59:35.657Z,6.60
